Falkenberg-Lonnewitz Airport


Codes: EDUF/
Name: Falkenberg-Lonnewitz Airport
City: Uebigau-Wahrenbruck
Country: Germany
Elevation: 312 ft.

Photos at Falkenberg-Lonnewitz Airport


   Photos courtesy of SpottingLog. You can add your own sightings and photos by signing up for a free trial today.



No photos found.

Weather at Falkenberg-Lonnewitz Airport


Time (UTC)DescriptionTempratureWindCloud coverageVisibilityPressureHumidity
15-Apr-2024 18:00Light Rain14°C7 mph, SW75%6769m1001hPa68%
15-Apr-2024 21:00Moderate Rain9°C16 mph, W75%10000m1000hPa82%
16-Apr-2024 00:00Broken Clouds4°C20 mph, W57%10000m1001hPa82%
16-Apr-2024 03:00Broken Clouds5°C18 mph, W58%10000m1000hPa73%
16-Apr-2024 06:00Broken Clouds6°C18 mph, SW60%10000m1001hPa75%
16-Apr-2024 09:00Overcast Clouds8°C20 mph, W91%10000m1001hPa59%
16-Apr-2024 12:00Light Rain9°C18 mph, W92%10000m1000hPa64%
16-Apr-2024 15:00Light Rain10°C11 mph, W91%10000m999hPa64%
16-Apr-2024 18:00Light Rain6°C9 mph, NW69%10000m1001hPa82%
16-Apr-2024 21:00Overcast Clouds5°C11 mph, NW100%10000m1003hPa93%
17-Apr-2024 00:00Light Rain4°C11 mph, NW100%10000m1005hPa93%
17-Apr-2024 03:00Light Rain3°C9 mph, N100%0m1007hPa97%
17-Apr-2024 06:00Overcast Clouds4°C7 mph, W98%10000m1009hPa88%
17-Apr-2024 09:00Light Rain8°C9 mph, NW96%10000m1009hPa68%
17-Apr-2024 12:00Light Rain10°C11 mph, NW84%10000m1009hPa48%
17-Apr-2024 15:00Overcast Clouds10°C9 mph, NW93%10000m1009hPa44%
17-Apr-2024 18:00Light Rain5°C7 mph, N62%10000m1011hPa80%
17-Apr-2024 21:00Broken Clouds3°C7 mph, NE64%10000m1013hPa87%
18-Apr-2024 00:00Scattered Clouds1°C4 mph, NE42%10000m1014hPa89%
18-Apr-2024 03:00Clear Sky-1°C4 mph, NE3%10000m1015hPa89%
18-Apr-2024 06:00Clear Sky3°C2 mph, N6%10000m1017hPa77%
18-Apr-2024 09:00Clear Sky8°C7 mph, NW5%10000m1017hPa57%
18-Apr-2024 12:00Few Clouds11°C7 mph, NW23%10000m1016hPa47%
18-Apr-2024 15:00Light Rain10°C13 mph, NW100%10000m1016hPa59%
18-Apr-2024 18:00Light Rain6°C9 mph, NW72%10000m1016hPa85%
18-Apr-2024 21:00Light Rain4°C7 mph, NW95%10000m1017hPa93%
19-Apr-2024 00:00Overcast Clouds3°C7 mph, W92%10000m1017hPa95%
19-Apr-2024 03:00Overcast Clouds4°C11 mph, W100%10000m1017hPa94%
19-Apr-2024 06:00Overcast Clouds4°C9 mph, W100%10000m1016hPa89%
19-Apr-2024 09:00Overcast Clouds6°C13 mph, W100%10000m1014hPa73%
19-Apr-2024 12:00Light Rain5°C13 mph, SW100%10000m1010hPa94%
19-Apr-2024 15:00Moderate Rain4°C16 mph, SW100%95m1007hPa97%
19-Apr-2024 18:00Light Rain6°C18 mph, W100%10000m1006hPa94%
19-Apr-2024 21:00Light Rain6°C18 mph, W100%10000m1007hPa91%
20-Apr-2024 00:00Light Rain4°C20 mph, N100%0m1008hPa97%
20-Apr-2024 03:00Light Rain3°C16 mph, N100%0m1010hPa98%
20-Apr-2024 06:00Light Rain4°C13 mph, NW100%10000m1014hPa94%
20-Apr-2024 09:00Light Rain5°C9 mph, NW98%10000m1017hPa89%
20-Apr-2024 12:00Light Rain6°C16 mph, N99%0m1019hPa96%
20-Apr-2024 15:00Light Rain8°C11 mph, NW100%10000m1019hPa75%